Terminal Aerodrome Forecast
Issued by NWS Wakefield, VA

Home | Current Version | Previous Version | Text Only | Print | Product List | Glossary On
Versions: 1 2 3 4 5 6 7 8 9 10 11 12 13 14 15 16 17 18 19 20 21 22 23 24 25 26 27 28
898
FTUS41 KAKQ 240532
TAFSBY
TAF
KSBY 240532Z 2406/2506 02008KT P6SM -RA OVC005
      TEMPO 2406/2407 2SM RA BKN007
     FM241000 04008KT P6SM VCSH OVC006
     FM241200 03009KT P6SM OVC007
     FM241300 02008KT P6SM OVC010
     FM241800 06009KT P6SM BKN025
     FM242300 10009KT P6SM OVC015=

USA.gov is the U.S. government's official web portal to all federal, state and local government web resources and services.